createdAt,value
2019-05-20T00:04:27.410Z,14.67
2019-05-20T00:09:29.214Z,14.79
2019-05-20T00:14:31.235Z,14.70
2019-05-20T00:19:35.870Z,14.81
2019-05-20T00:24:42.187Z,14.83
2019-05-20T00:29:44.203Z,14.68
2019-05-20T00:34:48.550Z,14.83
2019-05-20T00:39:50.594Z,14.62
2019-05-20T00:44:54.085Z,14.78
2019-05-20T00:49:56.753Z,14.91
2019-05-20T00:55:00.616Z,14.82
2019-05-20T01:00:03.213Z,14.78
2019-05-20T01:05:05.181Z,14.74
2019-05-20T01:10:07.019Z,14.75
2019-05-20T01:15:09.127Z,15.07
2019-05-20T01:20:11.734Z,15.08
2019-05-20T01:25:14.991Z,14.96
2019-05-20T01:30:20.048Z,15.09
2019-05-20T01:35:23.530Z,15.04
2019-05-20T01:40:25.456Z,15.06
2019-05-20T01:45:27.858Z,14.96
2019-05-20T01:50:37.882Z,14.78
2019-05-20T01:55:40.004Z,15.01
2019-05-20T02:05:54.846Z,15.05
2019-05-20T02:10:57.000Z,15.20
2019-05-20T02:16:06.551Z,14.97
2019-05-20T02:21:08.658Z,15.31
2019-05-20T02:26:12.072Z,15.20
2019-05-20T02:31:17.809Z,14.98
2019-05-20T02:36:19.794Z,15.19
2019-05-20T02:41:21.725Z,15.02
2019-05-20T02:46:23.656Z,15.04
2019-05-20T02:51:32.726Z,15.02
2019-05-20T02:56:37.022Z,14.89
2019-05-20T03:01:39.006Z,14.96
2019-05-20T03:06:40.806Z,14.93
2019-05-20T03:11:42.813Z,14.72
2019-05-20T03:16:44.617Z,14.84
2019-05-20T03:21:48.810Z,14.90
2019-05-20T03:26:50.721Z,14.86
2019-05-20T03:31:52.899Z,14.90
2019-05-20T03:36:54.914Z,14.93
2019-05-20T03:41:56.886Z,15.10
2019-05-20T03:46:58.816Z,14.96
2019-05-20T03:52:03.107Z,15.13
2019-05-20T03:57:06.309Z,15.06
2019-05-20T04:02:08.150Z,14.79
2019-05-20T04:07:10.069Z,15.11
2019-05-20T04:12:16.958Z,15.10
2019-05-20T04:17:21.750Z,14.94
2019-05-20T04:22:23.684Z,14.90
2019-05-20T04:27:25.610Z,14.89
2019-05-20T04:32:27.525Z,15.14
2019-05-20T04:37:29.425Z,15.02
2019-05-20T04:42:31.685Z,15.11
2019-05-20T04:47:33.584Z,15.19
2019-05-20T04:52:36.961Z,15.02
2019-05-20T04:57:38.927Z,15.16
2019-05-20T05:02:43.379Z,15.35
2019-05-20T05:07:44.792Z,15.16
2019-05-20T05:12:46.997Z,15.36
2019-05-20T05:17:48.922Z,15.43
2019-05-20T05:22:51.991Z,15.13
2019-05-20T05:27:54.061Z,15.40
2019-05-20T05:33:01.765Z,15.52
2019-05-20T05:38:06.086Z,15.23
2019-05-20T05:43:09.524Z,14.91
2019-05-20T05:48:11.492Z,15.37
2019-05-20T05:53:14.178Z,15.41
2019-05-20T05:58:16.089Z,15.40
2019-05-20T06:03:18.146Z,15.76
2019-05-20T06:08:23.159Z,15.53
2019-05-20T06:13:27.446Z,15.72
2019-05-20T06:18:29.467Z,15.78
2019-05-20T06:23:31.614Z,15.61
2019-05-20T06:28:33.518Z,15.74
2019-05-20T06:33:35.553Z,15.42
2019-05-20T06:38:43.034Z,15.88
2019-05-20T06:43:45.039Z,15.75
2019-05-20T06:48:46.985Z,15.39
2019-05-20T06:53:48.996Z,15.27
2019-05-20T06:58:51.033Z,15.65
2019-05-20T07:03:52.991Z,15.64
2019-05-20T07:08:54.961Z,15.97
2019-05-20T07:13:56.970Z,15.94
2019-05-20T07:19:00.682Z,15.80
2019-05-20T07:24:07.758Z,16.04
2019-05-20T07:29:12.396Z,16.04
2019-05-20T07:34:14.317Z,16.07
2019-05-20T07:39:18.022Z,16.26
2019-05-20T07:44:20.011Z,16.35
2019-05-20T07:49:23.148Z,16.49
2019-05-20T07:54:26.353Z,16.55
2019-05-20T07:59:30.107Z,16.35
2019-05-20T08:04:34.601Z,16.66
2019-05-20T08:09:45.208Z,16.80
2019-05-20T08:14:42.563Z,16.44
2019-05-20T08:19:44.584Z,16.94
2019-05-20T08:24:48.186Z,17.02
2019-05-20T08:29:50.146Z,16.56
2019-05-20T08:34:53.629Z,16.86
2019-05-20T08:39:55.435Z,17.35
2019-05-20T08:44:57.535Z,17.26
2019-05-20T08:49:59.484Z,17.40
2019-05-20T08:55:01.783Z,17.05
2019-05-20T09:00:05.280Z,17.37
2019-05-20T09:05:08.118Z,17.87
2019-05-20T09:10:10.743Z,17.44
2019-05-20T09:15:15.667Z,16.94
2019-05-20T09:20:18.234Z,17.03
2019-05-20T09:25:30.608Z,16.74
2019-05-20T09:30:32.538Z,16.80
2019-05-20T09:35:34.484Z,17.28
2019-05-20T09:40:40.735Z,17.66
2019-05-20T09:45:42.833Z,17.62
2019-05-20T09:50:46.948Z,17.68
2019-05-20T09:55:51.391Z,17.83
2019-05-20T10:00:53.784Z,18.08
2019-05-20T10:05:55.658Z,17.99
2019-05-20T10:11:00.294Z,18.20
2019-05-20T10:16:02.681Z,17.49
2019-05-20T10:21:04.608Z,16.82
2019-05-20T10:26:11.957Z,17.41
2019-05-20T10:31:13.882Z,17.59
2019-05-20T10:36:16.086Z,17.17
2019-05-20T10:41:21.044Z,16.91
2019-05-20T10:46:23.140Z,17.31
2019-05-20T10:51:27.755Z,17.21
2019-05-20T10:56:29.834Z,17.32
2019-05-20T11:01:31.874Z,16.88
2019-05-20T11:06:33.783Z,16.93
2019-05-20T11:11:39.484Z,17.11
2019-05-20T11:16:41.778Z,17.17
2019-05-20T11:21:43.888Z,16.91
2019-05-20T11:26:47.135Z,17.03
2019-05-20T11:31:48.932Z,17.20
2019-05-20T11:36:53.896Z,17.80
2019-05-20T11:42:00.900Z,17.31
2019-05-20T11:47:02.844Z,17.53
2019-05-20T11:52:04.809Z,17.54
2019-05-20T11:57:06.613Z,17.45
2019-05-20T12:02:08.499Z,17.42
2019-05-20T12:07:10.476Z,17.92
2019-05-20T12:12:12.388Z,18.52
2019-05-20T12:17:14.301Z,18.34
2019-05-20T12:22:16.243Z,18.44
2019-05-20T12:27:18.117Z,18.15
2019-05-20T12:32:20.058Z,18.37
2019-05-20T12:37:21.960Z,17.78
2019-05-20T12:42:24.236Z,17.65
2019-05-20T12:47:26.680Z,18.07
2019-05-20T12:52:28.889Z,18.70
2019-05-20T12:57:35.206Z,18.85
2019-05-20T13:02:37.270Z,18.38
2019-05-20T13:07:39.179Z,18.27
2019-05-20T13:12:43.912Z,18.88
2019-05-20T13:17:45.835Z,19.32
2019-05-20T13:22:49.000Z,19.65
2019-05-20T13:27:50.921Z,19.80
2019-05-20T13:32:53.042Z,19.71
2019-05-20T13:37:54.961Z,19.05
2019-05-20T13:42:57.214Z,18.69
2019-05-20T13:47:59.133Z,19.01
2019-05-20T13:53:02.323Z,18.91
2019-05-20T13:58:04.266Z,18.95
2019-05-20T14:03:06.515Z,19.48
2019-05-20T14:08:08.701Z,18.94
2019-05-20T14:13:10.747Z,18.93
2019-05-20T14:18:15.729Z,18.86
2019-05-20T14:23:17.746Z,19.56
2019-05-20T14:28:21.336Z,19.52
2019-05-20T14:33:23.450Z,19.03
2019-05-20T14:38:25.417Z,19.47
2019-05-20T14:43:27.604Z,19.01
2019-05-20T14:48:32.330Z,18.57
2019-05-20T14:53:35.567Z,18.73
2019-05-20T14:58:39.632Z,18.55
2019-05-20T15:03:41.623Z,18.35
2019-05-20T15:08:45.884Z,18.47
2019-05-20T15:13:48.057Z,18.65
2019-05-20T15:18:51.881Z,18.45
2019-05-20T15:23:55.593Z,18.47
2019-05-20T15:28:57.641Z,18.27
2019-05-20T15:34:03.134Z,17.36
2019-05-20T15:39:06.229Z,17.21
2019-05-20T15:44:08.288Z,17.13
2019-05-20T15:49:11.462Z,17.48
2019-05-20T15:54:13.408Z,17.41
2019-05-20T15:59:15.406Z,17.29
2019-05-20T16:04:17.488Z,17.50
2019-05-20T16:09:19.741Z,16.94
2019-05-20T16:14:23.875Z,17.08
2019-05-20T16:19:25.855Z,17.26
2019-05-20T16:24:28.057Z,17.23
2019-05-20T16:29:30.029Z,17.35
2019-05-20T16:34:32.126Z,17.47
2019-05-20T16:39:36.317Z,17.66
2019-05-20T16:44:38.470Z,17.68
2019-05-20T16:49:44.508Z,17.53
2019-05-20T16:54:49.468Z,17.47
2019-05-20T16:59:51.827Z,17.31
2019-05-20T17:04:55.554Z,17.15
2019-05-20T17:09:57.463Z,17.02
2019-05-20T17:14:59.478Z,16.78
2019-05-20T17:20:01.457Z,17.09
2019-05-20T17:25:07.248Z,17.17
2019-05-20T17:30:14.106Z,16.80
2019-05-20T17:35:19.026Z,16.79
2019-05-20T17:40:22.146Z,16.49
2019-05-20T17:45:28.262Z,16.97
2019-05-20T17:50:31.623Z,16.57
2019-05-20T17:55:33.931Z,16.64
2019-05-20T18:00:36.039Z,16.43
2019-05-20T18:05:38.187Z,16.19
2019-05-20T18:10:40.207Z,16.18
2019-05-20T18:15:42.615Z,16.12
2019-05-20T18:20:44.482Z,15.89
2019-05-20T18:25:47.953Z,15.75
2019-05-20T18:30:49.880Z,15.69
2019-05-20T18:35:53.151Z,15.44
2019-05-20T18:40:57.637Z,15.87
2019-05-20T18:46:00.748Z,15.41
2019-05-20T18:51:02.727Z,15.62
2019-05-20T18:56:04.884Z,15.10
2019-05-20T19:01:06.702Z,15.40
2019-05-20T19:06:10.223Z,15.38
2019-05-20T19:11:12.127Z,15.66
2019-05-20T19:16:15.377Z,15.15
2019-05-20T19:21:19.697Z,15.34
2019-05-20T19:26:25.127Z,15.33
2019-05-20T19:31:25.621Z,15.39
2019-05-20T19:36:27.603Z,15.24
2019-05-20T19:41:29.545Z,15.31
2019-05-20T19:46:34.384Z,15.11
2019-05-20T19:51:36.195Z,15.18
2019-05-20T19:56:38.261Z,14.97
2019-05-20T20:01:40.288Z,14.82
2019-05-20T20:06:42.554Z,14.85
2019-05-20T20:11:44.520Z,14.83
2019-05-20T20:16:48.523Z,14.92
2019-05-20T20:21:51.628Z,14.60
2019-05-20T20:26:53.685Z,14.56
2019-05-20T20:31:55.712Z,14.72
2019-05-20T20:36:59.558Z,14.78
2019-05-20T20:42:01.584Z,14.66
2019-05-20T20:47:03.580Z,14.80
2019-05-20T20:52:08.431Z,14.44
2019-05-20T20:57:10.340Z,14.22
2019-05-20T21:02:12.284Z,14.37
2019-05-20T21:07:14.215Z,14.39
2019-05-20T21:12:16.334Z,14.59
2019-05-20T21:17:18.358Z,14.12
2019-05-20T21:22:20.284Z,14.11
2019-05-20T21:27:24.008Z,14.17
2019-05-20T21:32:26.026Z,14.09
2019-05-20T21:37:28.821Z,14.27
2019-05-20T21:42:32.590Z,14.23
2019-05-20T21:47:36.612Z,14.37
2019-05-20T21:52:38.951Z,14.37
2019-05-20T21:57:40.997Z,14.23
2019-05-20T22:02:44.149Z,14.20
2019-05-20T22:07:46.175Z,14.18
2019-05-20T22:12:48.452Z,14.12
2019-05-20T22:17:52.060Z,13.96
2019-05-20T22:23:12.796Z,14.26
2019-05-20T22:28:14.896Z,14.17
2019-05-20T22:33:19.343Z,14.06
2019-05-20T22:38:23.919Z,14.09
2019-05-20T22:43:25.937Z,14.23
2019-05-20T22:48:27.950Z,14.00
2019-05-20T22:53:30.062Z,14.29
2019-05-20T22:58:38.571Z,14.09
2019-05-20T23:03:55.373Z,13.93
2019-05-20T23:08:49.267Z,14.11
2019-05-20T23:13:53.258Z,14.04
2019-05-20T23:18:55.564Z,14.18
2019-05-20T23:23:57.613Z,14.08
2019-05-20T23:28:59.633Z,13.96
2019-05-20T23:34:12.256Z,14.19
2019-05-20T23:39:06.829Z,14.12
2019-05-20T23:44:12.760Z,14.06
2019-05-20T23:49:14.892Z,14.14
2019-05-20T23:54:17.270Z,14.25
2019-05-20T23:59:23.064Z,14.27
